sensor_id;sensor_type;location;lat;lon;timestamp;pressure;altitude;pressure_sealevel;temperature
70819;BMP280;58439;51.046;13.692;2022-12-18T00:01:33;101623.53;;;-8.01
70819;BMP280;58439;51.046;13.692;2022-12-18T00:04:04;101621.06;;;-8.06
70819;BMP280;58439;51.046;13.692;2022-12-18T00:06:34;101629.59;;;-8.10
70819;BMP280;58439;51.046;13.692;2022-12-18T00:09:03;101624.44;;;-8.06
70819;BMP280;58439;51.046;13.692;2022-12-18T00:11:31;101635.34;;;-7.99
70819;BMP280;58439;51.046;13.692;2022-12-18T00:13:59;101637.88;;;-7.99
70819;BMP280;58439;51.046;13.692;2022-12-18T00:16:28;101646.44;;;-8.05
70819;BMP280;58439;51.046;13.692;2022-12-18T00:18:59;101660.00;;;-8.09
70819;BMP280;58439;51.046;13.692;2022-12-18T00:21:30;101658.38;;;-8.11
70819;BMP280;58439;51.046;13.692;2022-12-18T00:23:59;101660.03;;;-8.10
70819;BMP280;58439;51.046;13.692;2022-12-18T00:26:31;101651.56;;;-8.08
70819;BMP280;58439;51.046;13.692;2022-12-18T00:29:09;101654.13;;;-8.11
70819;BMP280;58439;51.046;13.692;2022-12-18T00:31:37;101655.94;;;-8.20
70819;BMP280;58439;51.046;13.692;2022-12-18T00:34:06;101648.47;;;-8.28
70819;BMP280;58439;51.046;13.692;2022-12-18T00:36:34;101649.38;;;-8.32
70819;BMP280;58439;51.046;13.692;2022-12-18T00:39:04;101650.22;;;-8.33
70819;BMP280;58439;51.046;13.692;2022-12-18T00:41:32;101660.31;;;-8.30
70819;BMP280;58439;51.046;13.692;2022-12-18T00:44:19;101668.81;;;-8.33
70819;BMP280;58439;51.046;13.692;2022-12-18T00:46:47;101674.84;;;-8.41
70819;BMP280;58439;51.046;13.692;2022-12-18T00:49:18;101674.88;;;-8.43
70819;BMP280;58439;51.046;13.692;2022-12-18T00:51:47;101673.22;;;-8.45
70819;BMP280;58439;51.046;13.692;2022-12-18T00:54:15;101668.19;;;-8.50
70819;BMP280;58439;51.046;13.692;2022-12-18T00:56:43;101666.53;;;-8.53
70819;BMP280;58439;51.046;13.692;2022-12-18T00:59:17;101672.47;;;-8.54
70819;BMP280;58439;51.046;13.692;2022-12-18T01:01:45;101670.75;;;-8.53
70819;BMP280;58439;51.046;13.692;2022-12-18T01:04:14;101669.84;;;-8.49
70819;BMP280;58439;51.046;13.692;2022-12-18T01:06:44;101683.19;;;-8.33
70819;BMP280;58439;51.046;13.692;2022-12-18T01:09:11;101683.09;;;-8.25
70819;BMP280;58439;51.046;13.692;2022-12-18T01:11:39;101683.09;;;-8.27
70819;BMP280;58439;51.046;13.692;2022-12-18T01:14:06;101690.81;;;-8.32
70819;BMP280;58439;51.046;13.692;2022-12-18T01:16:35;101689.97;;;-8.32
70819;BMP280;58439;51.046;13.692;2022-12-18T01:19:04;101690.00;;;-8.37
70819;BMP280;58439;51.046;13.692;2022-12-18T01:21:31;101690.06;;;-8.41
70819;BMP280;58439;51.046;13.692;2022-12-18T01:24:03;101689.31;;;-8.48
70819;BMP280;58439;51.046;13.692;2022-12-18T01:26:30;101696.16;;;-8.55
70819;BMP280;58439;51.046;13.692;2022-12-18T01:28:58;101699.63;;;-8.63
70819;BMP280;58439;51.046;13.692;2022-12-18T01:31:29;101699.56;;;-8.57
70819;BMP280;58439;51.046;13.692;2022-12-18T01:33:57;101693.66;;;-8.59
70819;BMP280;58439;51.046;13.692;2022-12-18T01:36:34;101702.09;;;-8.59
70819;BMP280;58439;51.046;13.692;2022-12-18T01:39:06;101700.41;;;-8.57
70819;BMP280;58439;51.046;13.692;2022-12-18T01:41:34;101693.59;;;-8.53
70819;BMP280;58439;51.046;13.692;2022-12-18T01:47:59;101688.72;;;-8.70
70819;BMP280;58439;51.046;13.692;2022-12-18T01:50:39;101687.94;;;-8.75
70819;BMP280;58439;51.046;13.692;2022-12-18T01:53:17;101695.59;;;-8.81
70819;BMP280;58439;51.046;13.692;2022-12-18T01:55:54;101700.69;;;-8.84
70819;BMP280;58439;51.046;13.692;2022-12-18T01:58:35;101698.06;;;-8.74
70819;BMP280;58439;51.046;13.692;2022-12-18T02:01:04;101704.78;;;-8.73
70819;BMP280;58439;51.046;13.692;2022-12-18T02:03:32;101713.34;;;-8.80
70819;BMP280;58439;51.046;13.692;2022-12-18T02:06:25;101706.59;;;-8.82
70819;BMP280;58439;51.046;13.692;2022-12-18T02:09:11;101712.56;;;-8.86
70819;BMP280;58439;51.046;13.692;2022-12-18T02:11:56;101710.03;;;-8.88
70819;BMP280;58439;51.046;13.692;2022-12-18T02:14:53;101703.19;;;-8.81
70819;BMP280;58439;51.046;13.692;2022-12-18T02:17:42;101691.34;;;-8.79
70819;BMP280;58439;51.046;13.692;2022-12-18T02:23:44;101701.66;;;-8.96
70819;BMP280;58439;51.046;13.692;2022-12-18T02:26:36;101703.31;;;-8.92
70819;BMP280;58439;51.046;13.692;2022-12-18T02:29:15;101705.81;;;-8.89
70819;BMP280;58439;51.046;13.692;2022-12-18T02:31:54;101720.16;;;-8.88
70819;BMP280;58439;51.046;13.692;2022-12-18T02:34:29;101730.31;;;-8.89
70819;BMP280;58439;51.046;13.692;2022-12-18T02:37:01;101722.75;;;-8.92
70819;BMP280;58439;51.046;13.692;2022-12-18T02:39:32;101714.28;;;-8.87
70819;BMP280;58439;51.046;13.692;2022-12-18T02:42:03;101714.31;;;-8.91
70819;BMP280;58439;51.046;13.692;2022-12-18T02:44:42;101711.84;;;-9.01
70819;BMP280;58439;51.046;13.692;2022-12-18T02:47:15;101714.41;;;-9.04
70819;BMP280;58439;51.046;13.692;2022-12-18T02:57:57;101712.91;;;-9.23
70819;BMP280;58439;51.046;13.692;2022-12-18T03:00:54;101716.34;;;-9.30
70819;BMP280;58439;51.046;13.692;2022-12-18T03:03:40;101716.34;;;-9.30
70819;BMP280;58439;51.046;13.692;2022-12-18T03:06:22;101720.59;;;-9.34
70819;BMP280;58439;51.046;13.692;2022-12-18T03:08:59;101715.56;;;-9.38
70819;BMP280;58439;51.046;13.692;2022-12-18T03:11:33;101716.38;;;-9.33
70819;BMP280;58439;51.046;13.692;2022-12-18T03:14:22;101717.13;;;-9.22
70819;BMP280;58439;51.046;13.692;2022-12-18T03:16:54;101717.06;;;-9.14
70819;BMP280;58439;51.046;13.692;2022-12-18T03:19:28;101720.41;;;-9.12
70819;BMP280;58439;51.046;13.692;2022-12-18T03:22:02;101717.91;;;-9.17
70819;BMP280;58439;51.046;13.692;2022-12-18T03:24:40;101723.81;;;-9.18
70819;BMP280;58439;51.046;13.692;2022-12-18T03:27:17;101734.00;;;-9.24
70819;BMP280;58439;51.046;13.692;2022-12-18T03:29:53;101728.97;;;-9.26
70819;BMP280;58439;51.046;13.692;2022-12-18T03:32:31;101724.75;;;-9.28
70819;BMP280;58439;51.046;13.692;2022-12-18T03:35:04;101724.78;;;-9.30
70819;BMP280;58439;51.046;13.692;2022-12-18T03:37:36;101728.13;;;-9.29
70819;BMP280;58439;51.046;13.692;2022-12-18T03:40:05;101731.50;;;-9.29
70819;BMP280;58439;51.046;13.692;2022-12-18T03:42:52;101728.97;;;-9.29
70819;BMP280;58439;51.046;13.692;2022-12-18T03:45:38;101731.56;;;-9.33
70819;BMP280;58439;51.046;13.692;2022-12-18T03:48:16;101724.91;;;-9.45
70819;BMP280;58439;51.046;13.692;2022-12-18T03:50:59;101727.47;;;-9.50
70819;BMP280;58439;51.046;13.692;2022-12-18T03:53:43;101735.06;;;-9.50
70819;BMP280;58439;51.046;13.692;2022-12-18T03:56:15;101735.88;;;-9.46
70819;BMP280;58439;51.046;13.692;2022-12-18T03:58:45;101734.16;;;-9.46
70819;BMP280;58439;51.046;13.692;2022-12-18T04:01:29;101745.09;;;-9.41
70819;BMP280;58439;51.046;13.692;2022-12-18T04:04:01;101741.69;;;-9.33
70819;BMP280;58439;51.046;13.692;2022-12-18T04:06:37;101738.28;;;-9.29
70819;BMP280;58439;51.046;13.692;2022-12-18T04:09:05;101743.38;;;-9.32
70819;BMP280;58439;51.046;13.692;2022-12-18T04:11:36;101745.09;;;-9.34
70819;BMP280;58439;51.046;13.692;2022-12-18T04:14:05;101747.63;;;-9.34
70819;BMP280;58439;51.046;13.692;2022-12-18T04:16:34;101750.13;;;-9.31
70819;BMP280;58439;51.046;13.692;2022-12-18T04:19:04;101748.47;;;-9.35
70819;BMP280;58439;51.046;13.692;2022-12-18T04:21:37;101749.31;;;-9.40
70819;BMP280;58439;51.046;13.692;2022-12-18T04:24:05;101754.41;;;-9.41
70819;BMP280;58439;51.046;13.692;2022-12-18T04:31:22;101753.66;;;-9.54
70819;BMP280;58439;51.046;13.692;2022-12-18T04:40:12;101759.50;;;-9.46
70819;BMP280;58439;51.046;13.692;2022-12-18T04:42:43;101766.25;;;-9.46
70819;BMP280;58439;51.046;13.692;2022-12-18T04:50:59;101778.91;;;-9.43
70819;BMP280;58439;51.046;13.692;2022-12-18T04:53:26;101773.88;;;-9.49
70819;BMP280;58439;51.046;13.692;2022-12-18T04:56:09;101767.97;;;-9.50
70819;BMP280;58439;51.046;13.692;2022-12-18T04:58:39;101759.56;;;-9.53
70819;BMP280;58439;51.046;13.692;2022-12-18T05:01:08;101762.91;;;-9.51
70819;BMP280;58439;51.046;13.692;2022-12-18T05:03:36;101760.38;;;-9.56
70819;BMP280;58439;51.046;13.692;2022-12-18T05:06:06;101762.13;;;-9.58
70819;BMP280;58439;51.046;13.692;2022-12-18T05:08:33;101766.34;;;-9.60
70819;BMP280;58439;51.046;13.692;2022-12-18T05:11:07;101766.31;;;-9.57
70819;BMP280;58439;51.046;13.692;2022-12-18T05:13:37;101768.84;;;-9.57
70819;BMP280;58439;51.046;13.692;2022-12-18T05:16:06;101761.28;;;-9.60
70819;BMP280;58439;51.046;13.692;2022-12-18T05:18:34;101760.47;;;-9.64
70819;BMP280;58439;51.046;13.692;2022-12-18T05:21:02;101761.31;;;-9.61
70819;BMP280;58439;51.046;13.692;2022-12-18T05:23:32;101762.13;;;-9.59
70819;BMP280;58439;51.046;13.692;2022-12-18T05:26:03;101765.50;;;-9.59
70819;BMP280;58439;51.046;13.692;2022-12-18T05:28:34;101769.72;;;-9.61
70819;BMP280;58439;51.046;13.692;2022-12-18T05:31:03;101767.19;;;-9.64
70819;BMP280;58439;51.046;13.692;2022-12-18T05:33:34;101760.47;;;-9.68
70819;BMP280;58439;51.046;13.692;2022-12-18T05:36:05;101758.81;;;-9.69
70819;BMP280;58439;51.046;13.692;2022-12-18T05:38:36;101763.88;;;-9.75
70819;BMP280;58439;51.046;13.692;2022-12-18T05:41:05;101759.69;;;-9.79
70819;BMP280;58439;51.046;13.692;2022-12-18T05:43:35;101764.78;;;-9.84
70819;BMP280;58439;51.046;13.692;2022-12-18T05:46:14;101760.59;;;-9.88
70819;BMP280;58439;51.046;13.692;2022-12-18T05:48:44;101765.66;;;-9.87
70819;BMP280;58439;51.046;13.692;2022-12-18T05:51:14;101767.34;;;-9.89
70819;BMP280;58439;51.046;13.692;2022-12-18T05:53:43;101764.00;;;-9.89
70819;BMP280;58439;51.046;13.692;2022-12-18T05:56:14;101764.84;;;-9.90
70819;BMP280;58439;51.046;13.692;2022-12-18T05:58:43;101778.31;;;-9.93
70819;BMP280;58439;51.046;13.692;2022-12-18T06:01:16;101778.34;;;-9.96
70819;BMP280;58439;51.046;13.692;2022-12-18T06:03:44;101779.97;;;-9.87
70819;BMP280;58439;51.046;13.692;2022-12-18T06:06:25;101774.06;;;-9.81
70819;BMP280;58439;51.046;13.692;2022-12-18T06:08:53;101778.28;;;-9.79
70819;BMP280;58439;51.046;13.692;2022-12-18T06:11:24;101795.16;;;-9.82
70819;BMP280;58439;51.046;13.692;2022-12-18T06:13:56;101785.84;;;-9.83
70819;BMP280;58439;51.046;13.692;2022-12-18T06:16:27;101785.84;;;-9.83
70819;BMP280;58439;51.046;13.692;2022-12-18T06:19:00;101788.44;;;-9.87
70819;BMP280;58439;51.046;13.692;2022-12-18T06:21:29;101796.03;;;-9.87
70819;BMP280;58439;51.046;13.692;2022-12-18T06:31:07;101795.16;;;-9.84
70819;BMP280;58439;51.046;13.692;2022-12-18T06:33:39;101800.25;;;-9.89
70819;BMP280;58439;51.046;13.692;2022-12-18T06:36:12;101802.75;;;-9.92
70819;BMP280;58439;51.046;13.692;2022-12-18T06:38:42;101800.28;;;-9.96
70819;BMP280;58439;51.046;13.692;2022-12-18T06:41:16;101796.94;;;-9.98
70819;BMP280;58439;51.046;13.692;2022-12-18T06:43:55;101791.84;;;-10.00
70819;BMP280;58439;51.046;13.692;2022-12-18T06:46:47;101796.09;;;-10.02
70819;BMP280;58439;51.046;13.692;2022-12-18T06:49:15;101799.44;;;-10.03
70819;BMP280;58439;51.046;13.692;2022-12-18T06:51:56;101806.19;;;-10.03
70819;BMP280;58439;51.046;13.692;2022-12-18T06:54:23;101802.00;;;-9.98
70819;BMP280;58439;51.046;13.692;2022-12-18T06:56:50;101813.78;;;-9.94
70819;BMP280;58439;51.046;13.692;2022-12-18T06:59:18;101808.66;;;-9.91
70819;BMP280;58439;51.046;13.692;2022-12-18T07:01:45;101820.47;;;-9.87
70819;BMP280;58439;51.046;13.692;2022-12-18T07:04:13;101825.53;;;-9.87
70819;BMP280;58439;51.046;13.692;2022-12-18T07:06:40;101827.22;;;-9.88
70819;BMP280;58439;51.046;13.692;2022-12-18T07:09:07;101828.06;;;-9.87
70819;BMP280;58439;51.046;13.692;2022-12-18T07:11:34;101829.75;;;-9.88
70819;BMP280;58439;51.046;13.692;2022-12-18T07:14:02;101829.75;;;-9.88
70819;BMP280;58439;51.046;13.692;2022-12-18T07:16:29;101829.75;;;-9.88
70819;BMP280;58439;51.046;13.692;2022-12-18T07:18:56;101831.44;;;-9.91
70819;BMP280;58439;51.046;13.692;2022-12-18T07:21:24;101815.44;;;-9.89
70819;BMP280;58439;51.046;13.692;2022-12-18T07:23:52;101832.28;;;-9.81
70819;BMP280;58439;51.046;13.692;2022-12-18T07:26:21;101831.44;;;-9.80
70819;BMP280;58439;51.046;13.692;2022-12-18T07:28:49;101836.47;;;-9.77
70819;BMP280;58439;51.046;13.692;2022-12-18T07:31:21;101841.50;;;-9.74
70819;BMP280;58439;51.046;13.692;2022-12-18T07:33:50;101845.75;;;-9.75
70819;BMP280;58439;51.046;13.692;2022-12-18T07:36:18;101849.91;;;-9.68
70819;BMP280;58439;51.046;13.692;2022-12-18T07:38:50;101858.31;;;-9.58
70819;BMP280;58439;51.046;13.692;2022-12-18T07:41:19;101849.84;;;-9.55
70819;BMP280;58439;51.046;13.692;2022-12-18T07:43:47;101851.56;;;-9.53
70819;BMP280;58439;51.046;13.692;2022-12-18T07:46:16;101851.50;;;-9.47
70819;BMP280;58439;51.046;13.692;2022-12-18T07:48:44;101857.38;;;-9.38
70819;BMP280;58439;51.046;13.692;2022-12-18T07:51:17;101857.34;;;-9.31
70819;BMP280;58439;51.046;13.692;2022-12-18T07:53:45;101857.28;;;-9.22
70819;BMP280;58439;51.046;13.692;2022-12-18T07:56:19;101868.84;;;-8.88
70819;BMP280;58439;51.046;13.692;2022-12-18T07:58:57;101870.41;;;-8.66
70819;BMP280;58439;51.046;13.692;2022-12-18T08:01:25;101869.56;;;-8.68
70819;BMP280;58439;51.046;13.692;2022-12-18T08:03:53;101864.50;;;-8.69
70819;BMP280;58439;51.046;13.692;2022-12-18T08:06:20;101859.44;;;-8.71
70819;BMP280;58439;51.046;13.692;2022-12-18T08:08:52;101856.00;;;-8.64
70819;BMP280;58439;51.046;13.692;2022-12-18T08:11:19;101857.63;;;-8.58
70819;BMP280;58439;51.046;13.692;2022-12-18T08:13:47;101852.53;;;-8.54
70819;BMP280;58439;51.046;13.692;2022-12-18T08:16:15;101839.75;;;-8.44
70819;BMP280;58439;51.046;13.692;2022-12-18T08:18:43;101840.50;;;-8.36
70819;BMP280;58439;51.046;13.692;2022-12-18T08:21:13;101842.94;;;-8.25
70819;BMP280;58439;51.046;13.692;2022-12-18T08:23:42;101841.13;;;-8.14
70819;BMP280;58439;51.046;13.692;2022-12-18T08:26:11;101841.88;;;-8.03
70819;BMP280;58439;51.046;13.692;2022-12-18T08:28:39;101852.72;;;-7.93
70819;BMP280;58439;51.046;13.692;2022-12-18T08:31:10;101848.38;;;-7.80
70819;BMP280;58439;51.046;13.692;2022-12-18T08:33:53;101848.22;;;-7.70
70819;BMP280;58439;51.046;13.692;2022-12-18T08:36:24;101854.03;;;-7.60
70819;BMP280;58439;51.046;13.692;2022-12-18T08:38:53;101843.69;;;-7.48
70819;BMP280;58439;51.046;13.692;2022-12-18T08:41:21;101840.13;;;-7.38
70819;BMP280;58439;51.046;13.692;2022-12-18T08:43:48;101852.66;;;-7.24
70819;BMP280;58439;51.046;13.692;2022-12-18T08:46:38;101849.94;;;-7.11
70819;BMP280;58439;51.046;13.692;2022-12-18T08:49:08;101849.75;;;-7.01
70819;BMP280;58439;51.046;13.692;2022-12-18T08:51:36;101853.78;;;-6.89
70819;BMP280;58439;51.046;13.692;2022-12-18T08:54:05;101849.41;;;-6.81
70819;BMP280;58439;51.046;13.692;2022-12-18T08:56:33;101844.13;;;-6.69
70819;BMP280;58439;51.046;13.692;2022-12-18T08:59:04;101856.69;;;-6.59
70819;BMP280;58439;51.046;13.692;2022-12-18T09:01:31;101863.28;;;-6.51
70819;BMP280;58439;51.046;13.692;2022-12-18T09:04:01;101863.09;;;-6.40
70819;BMP280;58439;51.046;13.692;2022-12-18T09:06:29;101857.00;;;-6.30
70819;BMP280;58439;51.046;13.692;2022-12-18T09:08:57;101846.63;;;-6.20
70819;BMP280;58439;51.046;13.692;2022-12-18T09:11:27;101854.88;;;-6.11
70819;BMP280;58439;51.046;13.692;2022-12-18T09:13:56;101856.25;;;-5.94
70819;BMP280;58439;51.046;13.692;2022-12-18T09:16:26;101870.38;;;-5.80
70819;BMP280;58439;51.046;13.692;2022-12-18T09:18:59;101876.16;;;-5.71
70819;BMP280;58439;51.046;13.692;2022-12-18T09:21:33;101878.66;;;-5.68
70819;BMP280;58439;51.046;13.692;2022-12-18T09:24:50;101891.97;;;-5.56
70819;BMP280;58439;51.046;13.692;2022-12-18T09:27:31;101893.44;;;-5.47
70819;BMP280;58439;51.046;13.692;2022-12-18T09:29:59;101894.94;;;-5.37
70819;BMP280;58439;51.046;13.692;2022-12-18T09:32:26;101887.00;;;-5.23
70819;BMP280;58439;51.046;13.692;2022-12-18T09:34:53;101889.22;;;-5.09
70819;BMP280;58439;51.046;13.692;2022-12-18T09:37:21;101893.25;;;-5.00
70819;BMP280;58439;51.046;13.692;2022-12-18T09:39:48;101889.63;;;-4.90
70819;BMP280;58439;51.046;13.692;2022-12-18T09:42:22;101885.09;;;-4.81
70819;BMP280;58439;51.046;13.692;2022-12-18T09:44:53;101890.94;;;-4.75
70819;BMP280;58439;51.046;13.692;2022-12-18T09:49:56;101885.34;;;-4.57
70819;BMP280;58439;51.046;13.692;2022-12-18T09:52:37;101873.22;;;-4.49
70819;BMP280;58439;51.046;13.692;2022-12-18T09:55:30;101872.16;;;-4.42
70819;BMP280;58439;51.046;13.692;2022-12-18T10:00:36;101869.84;;;-4.18
70819;BMP280;58439;51.046;13.692;2022-12-18T10:03:11;101866.16;;;-4.09
70819;BMP280;58439;51.046;13.692;2022-12-18T10:06:02;101867.41;;;-3.93
70819;BMP280;58439;51.046;13.692;2022-12-18T10:09:47;101858.53;;;-1.20
70819;BMP280;58439;51.046;13.692;2022-12-18T10:12:54;101843.50;;;4.13
70819;BMP280;58439;51.046;13.692;2022-12-18T10:16:21;101833.19;;;5.49
70819;BMP280;58439;51.046;13.692;2022-12-18T10:27:43;101816.56;;;8.35
70819;BMP280;58439;51.046;13.692;2022-12-18T10:30:18;101809.38;;;8.87
70819;BMP280;58439;51.046;13.692;2022-12-18T10:32:45;101811.19;;;8.46
70819;BMP280;58439;51.046;13.692;2022-12-18T10:35:25;101806.75;;;7.97
70819;BMP280;58439;51.046;13.692;2022-12-18T10:43:34;101790.44;;;8.75
70819;BMP280;58439;51.046;13.692;2022-12-18T10:48:57;101777.19;;;9.54
70819;BMP280;58439;51.046;13.692;2022-12-18T10:51:36;101780.00;;;9.80
70819;BMP280;58439;51.046;13.692;2022-12-18T10:54:24;101789.63;;;9.43
70819;BMP280;58439;51.046;13.692;2022-12-18T10:57:37;101791.50;;;9.60
70819;BMP280;58439;51.046;13.692;2022-12-18T11:02:51;101784.88;;;9.66
70819;BMP280;58439;51.046;13.692;2022-12-18T11:05:30;101790.72;;;10.60
70819;BMP280;58439;51.046;13.692;2022-12-18T11:08:02;101780.28;;;10.14
70819;BMP280;58439;51.046;13.692;2022-12-18T11:10:36;101780.06;;;9.98
70819;BMP280;58439;51.046;13.692;2022-12-18T11:13:26;101777.34;;;10.98
70819;BMP280;58439;51.046;13.692;2022-12-18T11:15:58;101773.84;;;11.59
70819;BMP280;58439;51.046;13.692;2022-12-18T11:18:35;101771.75;;;11.63
70819;BMP280;58439;51.046;13.692;2022-12-18T11:21:12;101762.81;;;11.48
70819;BMP280;58439;51.046;13.692;2022-12-18T11:23:51;101752.03;;;10.45
70819;BMP280;58439;51.046;13.692;2022-12-18T11:26:20;101751.53;;;10.14
70819;BMP280;58439;51.046;13.692;2022-12-18T11:29:08;101750.75;;;12.05
70819;BMP280;58439;51.046;13.692;2022-12-18T11:31:36;101767.97;;;11.66
70819;BMP280;58439;51.046;13.692;2022-12-18T11:34:29;101750.88;;;10.03
70819;BMP280;58439;51.046;13.692;2022-12-18T11:37:03;101753.69;;;10.19
70819;BMP280;58439;51.046;13.692;2022-12-18T11:39:52;101754.03;;;10.69
70819;BMP280;58439;51.046;13.692;2022-12-18T11:42:53;101744.75;;;12.37
70819;BMP280;58439;51.046;13.692;2022-12-18T11:45:35;101748.59;;;11.07
70819;BMP280;58439;51.046;13.692;2022-12-18T11:48:37;101753.31;;;11.03
70819;BMP280;58439;51.046;13.692;2022-12-18T11:51:19;101750.66;;;11.21
70819;BMP280;58439;51.046;13.692;2022-12-18T11:53:53;101759.56;;;10.66
70819;BMP280;58439;51.046;13.692;2022-12-18T11:56:38;101773.28;;;11.48
70819;BMP280;58439;51.046;13.692;2022-12-18T12:02:30;101760.00;;;12.34
70819;BMP280;58439;51.046;13.692;2022-12-18T12:11:13;101769.81;;;11.39
70819;BMP280;58439;51.046;13.692;2022-12-18T12:14:13;101782.63;;;11.24
70819;BMP280;58439;51.046;13.692;2022-12-18T12:16:58;101772.75;;;11.44
70819;BMP280;58439;51.046;13.692;2022-12-18T12:20:02;101777.47;;;10.89
70819;BMP280;58439;51.046;13.692;2022-12-18T12:29:01;101774.31;;;9.48
70819;BMP280;58439;51.046;13.692;2022-12-18T12:37:23;101798.28;;;10.45
70819;BMP280;58439;51.046;13.692;2022-12-18T12:39:56;101802.63;;;9.99
70819;BMP280;58439;51.046;13.692;2022-12-18T12:42:34;101795.44;;;9.64
70819;BMP280;58439;51.046;13.692;2022-12-18T12:45:36;101797.28;;;9.34
70819;BMP280;58439;51.046;13.692;2022-12-18T12:48:15;101788.38;;;8.89
70819;BMP280;58439;51.046;13.692;2022-12-18T12:50:47;101780.13;;;7.93
70819;BMP280;58439;51.046;13.692;2022-12-18T12:53:26;101765.88;;;8.28
70819;BMP280;58439;51.046;13.692;2022-12-18T12:55:59;101780.28;;;7.71
70819;BMP280;58439;51.046;13.692;2022-12-18T13:08:04;101769.75;;;3.53
70819;BMP280;58439;51.046;13.692;2022-12-18T13:10:41;101763.06;;;3.10
70819;BMP280;58439;51.046;13.692;2022-12-18T13:13:53;101765.66;;;3.37
70819;BMP280;58439;51.046;13.692;2022-12-18T13:16:24;101758.78;;;3.23
70819;BMP280;58439;51.046;13.692;2022-12-18T13:19:25;101757.25;;;2.50
70819;BMP280;58439;51.046;13.692;2022-12-18T13:22:30;101752.19;;;1.44
70819;BMP280;58439;51.046;13.692;2022-12-18T13:24:59;101759.34;;;1.39
70819;BMP280;58439;51.046;13.692;2022-12-18T13:41:26;101767.69;;;1.29
70819;BMP280;58439;51.046;13.692;2022-12-18T13:46:51;101769.22;;;2.23
70819;BMP280;58439;51.046;13.692;2022-12-18T13:49:35;101766.38;;;2.56
70819;BMP280;58439;51.046;13.692;2022-12-18T13:52:20;101750.47;;;2.76
70819;BMP280;58439;51.046;13.692;2022-12-18T13:55:00;101760.81;;;2.91
70819;BMP280;58439;51.046;13.692;2022-12-18T13:57:37;101764.84;;;1.33
70819;BMP280;58439;51.046;13.692;2022-12-18T14:00:30;101757.75;;;0.06
70819;BMP280;58439;51.046;13.692;2022-12-18T14:03:00;101751.47;;;-0.61
70819;BMP280;58439;51.046;13.692;2022-12-18T14:05:36;101756.41;;;-1.13
70819;BMP280;58439;51.046;13.692;2022-12-18T14:08:16;101756.78;;;-1.62
70819;BMP280;58439;51.046;13.692;2022-12-18T14:10:47;101761.13;;;-1.84
70819;BMP280;58439;51.046;13.692;2022-12-18T14:13:40;101761.72;;;-2.00
70819;BMP280;58439;51.046;13.692;2022-12-18T14:16:14;101752.75;;;-2.10
70819;BMP280;58439;51.046;13.692;2022-12-18T14:18:56;101760.88;;;-2.22
70819;BMP280;58439;51.046;13.692;2022-12-18T14:21:34;101762.34;;;-2.38
70819;BMP280;58439;51.046;13.692;2022-12-18T14:24:21;101752.00;;;-2.57
70819;BMP280;58439;51.046;13.692;2022-12-18T14:26:51;101745.81;;;-2.75
70819;BMP280;58439;51.046;13.692;2022-12-18T14:29:30;101744.72;;;-2.92
70819;BMP280;58439;51.046;13.692;2022-12-18T14:32:13;101742.88;;;-3.11
70819;BMP280;58439;51.046;13.692;2022-12-18T14:34:53;101729.63;;;-3.23
70819;BMP280;58439;51.046;13.692;2022-12-18T14:37:25;101733.41;;;-3.34
70819;BMP280;58439;51.046;13.692;2022-12-18T14:40:02;101738.06;;;-3.46
70819;BMP280;58439;51.046;13.692;2022-12-18T14:42:36;101731.53;;;-3.54
70819;BMP280;58439;51.046;13.692;2022-12-18T14:45:42;101732.84;;;-3.68
70819;BMP280;58439;51.046;13.692;2022-12-18T14:48:36;101738.88;;;-3.70
70819;BMP280;58439;51.046;13.692;2022-12-18T14:51:15;101729.81;;;-3.80
70819;BMP280;58439;51.046;13.692;2022-12-18T14:54:03;101734.63;;;-3.98
70819;BMP280;58439;51.046;13.692;2022-12-18T14:56:37;101741.19;;;-4.16
70819;BMP280;58439;51.046;13.692;2022-12-18T14:59:22;101742.25;;;-4.24
70819;BMP280;58439;51.046;13.692;2022-12-18T15:04:33;101732.50;;;-4.38
70819;BMP280;58439;51.046;13.692;2022-12-18T15:16:03;101726.78;;;-4.48
70819;BMP280;58439;51.046;13.692;2022-12-18T15:18:55;101732.25;;;-4.59
70819;BMP280;58439;51.046;13.692;2022-12-18T15:22:30;101730.81;;;-4.69
70819;BMP280;58439;51.046;13.692;2022-12-18T15:25:26;101729.97;;;-4.69
70819;BMP280;58439;51.046;13.692;2022-12-18T15:28:01;101724.19;;;-4.74
70819;BMP280;58439;51.046;13.692;2022-12-18T15:30:28;101718.88;;;-4.68
70819;BMP280;58439;51.046;13.692;2022-12-18T15:37:28;101712.56;;;-4.55
70819;BMP280;58439;51.046;13.692;2022-12-18T15:41:05;101701.91;;;-4.69
70819;BMP280;58439;51.046;13.692;2022-12-18T15:45:30;101710.44;;;-4.70
70819;BMP280;58439;51.046;13.692;2022-12-18T15:48:27;101713.91;;;-4.73
70819;BMP280;58439;51.046;13.692;2022-12-18T15:50:56;101712.38;;;-4.78
70819;BMP280;58439;51.046;13.692;2022-12-18T15:53:32;101718.28;;;-4.76
70819;BMP280;58439;51.046;13.692;2022-12-18T15:55:59;101713.03;;;-4.72
70819;BMP280;58439;51.046;13.692;2022-12-18T15:58:56;101709.72;;;-4.75
70819;BMP280;58439;51.046;13.692;2022-12-18T16:02:16;101701.13;;;-4.71
70819;BMP280;58439;51.046;13.692;2022-12-18T16:04:52;101706.91;;;-4.66
70819;BMP280;58439;51.046;13.692;2022-12-18T16:07:21;101690.94;;;-4.73
70819;BMP280;58439;51.046;13.692;2022-12-18T16:09:52;101691.00;;;-4.74
70819;BMP280;58439;51.046;13.692;2022-12-18T16:12:23;101695.34;;;-4.78
70819;BMP280;58439;51.046;13.692;2022-12-18T16:14:51;101692.72;;;-4.75
70819;BMP280;58439;51.046;13.692;2022-12-18T16:17:19;101692.72;;;-4.75
70819;BMP280;58439;51.046;13.692;2022-12-18T16:19:50;101695.34;;;-4.78
70819;BMP280;58439;51.046;13.692;2022-12-18T16:22:21;101696.88;;;-4.72
70819;BMP280;58439;51.046;13.692;2022-12-18T16:24:53;101704.53;;;-4.72
70819;BMP280;58439;51.046;13.692;2022-12-18T16:27:22;101709.66;;;-4.72
70819;BMP280;58439;51.046;13.692;2022-12-18T16:29:49;101705.44;;;-4.73
70819;BMP280;58439;51.046;13.692;2022-12-18T16:32:20;101691.06;;;-4.77
70819;BMP280;58439;51.046;13.692;2022-12-18T16:34:50;101692.13;;;-4.85
70819;BMP280;58439;51.046;13.692;2022-12-18T16:37:18;101702.16;;;-4.78
70819;BMP280;58439;51.046;13.692;2022-12-18T16:39:48;101703.69;;;-4.71
70819;BMP280;58439;51.046;13.692;2022-12-18T16:42:19;101692.59;;;-4.72
70819;BMP280;58439;51.046;13.692;2022-12-18T16:44:48;101685.69;;;-4.68